Time;durP1;ratioP1;P1;durP2;ratioP2;P2;SDS_P1;SDS_P2;PMS_P1;PMS_P2;Temp;Humidity;BMP_temperature;BMP_pressure;BME280_temperature;BME280_humidity;BME280_pressure;Samples;Min_cycle;Max_cycle;Signal;HPM_P1;HPM_P2
2024/03/07 00:02:03;;;;;;;27.70;11.90;;;;;;;;;;4996613;28;20050;-62
2024/03/07 00:04:51;;;;;;;31.35;12.00;;;;;;;;;;4992701;28;20905;-62
2024/03/07 00:07:46;;;;;;;28.92;11.77;;;;;;;;;;4993556;28;20093;-48
2024/03/07 00:10:32;;;;;;;27.27;9.38;;;;;;;;;;4995841;28;20465;-47
2024/03/07 00:13:27;;;;;;;23.73;10.82;;;;;;;;;;4997495;28;20124;-49
2024/03/07 00:16:20;;;;;;;31.38;12.82;;;;;;;;;;4992093;28;20058;-46
2024/03/07 00:19:01;;;;;;;32.05;12.25;;;;;;;;;;4993868;28;20054;-63
2024/03/07 00:21:48;;;;;;;28.60;12.02;;;;;;;;;;4993430;28;20060;-62
2024/03/07 00:24:42;;;;;;;28.25;11.88;;;;;;;;;;4994537;28;20046;-60
2024/03/07 00:27:29;;;;;;;30.27;12.13;;;;;;;;;;4990660;28;20057;-62
2024/03/07 00:30:23;;;;;;;30.30;13.38;;;;;;;;;;4991792;28;20116;-62
2024/03/07 00:33:10;;;;;;;34.05;13.38;;;;;;;;;;4992798;28;20058;-63
2024/03/07 00:36:24;;;;;;;35.95;13.45;;;;;;;;;;4994411;28;20053;-59
2024/03/07 00:39:11;;;;;;;34.50;13.20;;;;;;;;;;4994504;28;20061;-59
2024/03/07 00:42:05;;;;;;;31.00;12.25;;;;;;;;;;4992627;28;20042;-59
2024/03/07 00:44:53;;;;;;;22.23;9.87;;;;;;;;;;4991460;28;20062;-59
2024/03/07 00:47:48;;;;;;;31.40;11.75;;;;;;;;;;4994799;28;20066;-51
2024/03/07 00:50:33;;;;;;;31.25;12.27;;;;;;;;;;4996479;28;20144;-64
2024/03/07 00:53:27;;;;;;;28.02;11.52;;;;;;;;;;4998246;28;20112;-64
2024/03/07 00:56:15;;;;;;;28.35;12.23;;;;;;;;;;4996021;28;20054;-64
2024/03/07 00:59:08;;;;;;;30.02;11.95;;;;;;;;;;4997020;28;20129;-64
2024/03/07 01:01:55;;;;;;;30.58;11.15;;;;;;;;;;4998401;28;20060;-64
2024/03/07 01:04:49;;;;;;;31.15;11.63;;;;;;;;;;4997973;28;20573;-46
2024/03/07 01:07:37;;;;;;;29.00;11.73;;;;;;;;;;5000001;28;20152;-48
2024/03/07 01:10:30;;;;;;;31.63;11.50;;;;;;;;;;4998267;28;20055;-50
2024/03/07 01:13:22;;;;;;;28.38;12.57;;;;;;;;;;4995163;28;20053;-45
2024/03/07 01:16:27;;;;;;;22.95;10.13;;;;;;;;;;4997304;28;20058;-52
2024/03/07 01:19:21;;;;;;;29.17;10.43;;;;;;;;;;4996870;28;20060;-63
2024/03/07 01:22:15;;;;;;;26.00;11.02;;;;;;;;;;4996060;28;20045;-63
2024/03/07 01:25:04;;;;;;;26.83;11.38;;;;;;;;;;4996941;28;20053;-62
2024/03/07 01:27:56;;;;;;;33.80;11.52;;;;;;;;;;4995881;28;20047;-63
2024/03/07 01:30:43;;;;;;;25.08;11.35;;;;;;;;;;4991013;28;20050;-63
2024/03/07 01:33:37;;;;;;;27.10;11.07;;;;;;;;;;4998526;28;20049;-61
2024/03/07 01:36:31;;;;;;;39.13;11.07;;;;;;;;;;4996281;28;20112;-60
2024/03/07 01:39:25;;;;;;;29.42;11.23;;;;;;;;;;4992360;28;20572;-59
2024/03/07 01:42:12;;;;;;;27.58;10.55;;;;;;;;;;4997131;28;20513;-56
2024/03/07 01:45:08;;;;;;;27.27;10.32;;;;;;;;;;4988014;28;20103;-61
2024/03/07 01:47:57;;;;;;;29.48;10.48;;;;;;;;;;4995117;28;20054;-64
2024/03/07 01:50:51;;;;;;;30.13;11.52;;;;;;;;;;4993667;28;20198;-64
2024/03/07 01:53:39;;;;;;;27.23;11.30;;;;;;;;;;4996179;28;20046;-64
2024/03/07 01:56:32;;;;;;;22.70;9.80;;;;;;;;;;4994909;28;20050;-65
2024/03/07 01:59:24;;;;;;;25.00;10.95;;;;;;;;;;4993556;28;20058;-64
2024/03/07 02:02:17;;;;;;;26.58;10.68;;;;;;;;;;4994229;28;20475;-63
2024/03/07 02:05:05;;;;;;;18.23;8.13;;;;;;;;;;4993312;28;20072;-63
2024/03/07 02:07:59;;;;;;;27.30;11.02;;;;;;;;;;4998072;28;20064;-63
2024/03/07 02:10:46;;;;;;;23.58;11.20;;;;;;;;;;4995456;28;20053;-63
2024/03/07 02:13:40;;;;;;;29.05;10.40;;;;;;;;;;4999403;28;20050;-59
2024/03/07 02:16:27;;;;;;;34.80;12.70;;;;;;;;;;5000677;28;21068;-46
2024/03/07 02:19:21;;;;;;;29.55;11.02;;;;;;;;;;4997966;28;20050;-47
2024/03/07 02:22:08;;;;;;;27.60;11.63;;;;;;;;;;4996940;28;20062;-45
2024/03/07 02:25:02;;;;;;;29.90;11.32;;;;;;;;;;4991212;28;20058;-48
2024/03/07 02:27:56;;;;;;;25.65;11.30;;;;;;;;;;4994484;28;20053;-48
2024/03/07 02:30:50;;;;;;;27.20;11.32;;;;;;;;;;4997090;28;20461;-61
2024/03/07 02:33:37;;;;;;;27.48;10.77;;;;;;;;;;4997385;28;20453;-61
2024/03/07 02:36:31;;;;;;;26.75;9.82;;;;;;;;;;4996291;28;20506;-61
2024/03/07 02:39:18;;;;;;;25.88;10.48;;;;;;;;;;4992052;28;20575;-61
2024/03/07 02:42:12;;;;;;;29.17;10.88;;;;;;;;;;4993531;28;20092;-53
2024/03/07 02:44:59;;;;;;;26.60;10.65;;;;;;;;;;4995247;28;20111;-50
2024/03/07 02:47:53;;;;;;;24.25;11.13;;;;;;;;;;4996043;28;20513;-51
2024/03/07 02:50:47;;;;;;;26.38;11.85;;;;;;;;;;4994396;28;20152;-50
2024/03/07 02:53:41;;;;;;;22.13;8.80;;;;;;;;;;4994748;28;20139;-46
2024/03/07 02:56:28;;;;;;;28.50;11.20;;;;;;;;;;4993201;28;20052;-47
2024/03/07 02:59:22;;;;;;;26.05;10.60;;;;;;;;;;4998400;28;21114;-49
2024/03/07 03:02:16;;;;;;;28.60;10.57;;;;;;;;;;4991564;28;20145;-53
2024/03/07 03:05:06;;;;;;;27.00;10.38;;;;;;;;;;4997135;28;20054;-54
2024/03/07 03:07:57;;;;;;;22.55;9.70;;;;;;;;;;4997246;28;20050;-47
2024/03/07 03:10:44;;;;;;;24.35;10.25;;;;;;;;;;4996263;28;20576;-62
2024/03/07 03:13:38;;;;;;;25.02;11.10;;;;;;;;;;4997359;28;20054;-64
2024/03/07 03:16:25;;;;;;;26.80;10.75;;;;;;;;;;4993534;28;20050;-64
2024/03/07 03:19:19;;;;;;;25.60;10.68;;;;;;;;;;4996672;28;20108;-64
2024/03/07 03:22:08;;;;;;;26.73;10.90;;;;;;;;;;4994243;28;20053;-66
2024/03/07 03:25:01;;;;;;;29.38;10.48;;;;;;;;;;4996209;28;20046;-64
2024/03/07 03:27:48;;;;;;;24.38;10.10;;;;;;;;;;4994373;28;20408;-64
2024/03/07 03:30:42;;;;;;;34.70;11.02;;;;;;;;;;4995687;28;20065;-64
2024/03/07 03:33:29;;;;;;;25.63;10.60;;;;;;;;;;4994439;28;20501;-65
2024/03/07 03:36:22;;;;;;;27.88;9.93;;;;;;;;;;4994774;28;20077;-64
2024/03/07 03:39:13;;;;;;;26.80;10.27;;;;;;;;;;4993780;28;20054;-56
2024/03/07 03:42:03;;;;;;;25.17;10.77;;;;;;;;;;4995112;28;20050;-51
2024/03/07 03:44:50;;;;;;;27.40;9.57;;;;;;;;;;4994524;28;20498;-47
2024/03/07 03:47:44;;;;;;;25.23;10.38;;;;;;;;;;4994018;28;20103;-51
2024/03/07 03:50:31;;;;;;;26.17;10.20;;;;;;;;;;4999015;28;20065;-48
2024/03/07 03:53:25;;;;;;;24.60;10.45;;;;;;;;;;4995189;28;20060;-51
2024/03/07 03:56:12;;;;;;;19.50;9.55;;;;;;;;;;4998995;28;20052;-62
2024/03/07 03:59:06;;;;;;;24.02;9.90;;;;;;;;;;4995419;28;20060;-61
2024/03/07 04:01:54;;;;;;;24.60;9.40;;;;;;;;;;4994978;28;20136;-61
2024/03/07 04:04:48;;;;;;;29.00;9.45;;;;;;;;;;4996291;28;20060;-60
2024/03/07 04:07:41;;;;;;;25.85;10.18;;;;;;;;;;4995744;28;20077;-46
2024/03/07 04:10:35;;;;;;;22.17;9.60;;;;;;;;;;4988565;28;20501;-62
2024/03/07 04:13:22;;;;;;;24.20;9.88;;;;;;;;;;4991023;28;20050;-63
2024/03/07 04:16:16;;;;;;;26.38;9.88;;;;;;;;;;4992880;28;20054;-62
2024/03/07 04:19:10;;;;;;;23.15;9.55;;;;;;;;;;4976241;28;20156;-61
2024/03/07 04:22:03;;;;;;;17.13;8.65;;;;;;;;;;4974340;28;20058;-62
2024/03/07 04:24:57;;;;;;;27.95;10.20;;;;;;;;;;4972841;28;20050;-64
2024/03/07 04:27:51;;;;;;;21.60;9.18;;;;;;;;;;4971866;28;20070;-64
2024/03/07 04:30:38;;;;;;;20.63;7.95;;;;;;;;;;4968405;28;20058;-64
2024/03/07 04:33:32;;;;;;;21.42;9.00;;;;;;;;;;4971898;28;20054;-62
2024/03/07 04:36:19;;;;;;;27.17;10.48;;;;;;;;;;4973517;28;20113;-61
2024/03/07 04:39:27;;;;;;;27.73;9.73;;;;;;;;;;4974627;28;20158;-58
2024/03/07 04:42:09;;;;;;;20.40;8.73;;;;;;;;;;4972958;28;20057;-54
2024/03/07 04:45:05;;;;;;;19.02;8.98;;;;;;;;;;4974207;28;20493;-56
2024/03/07 04:47:50;;;;;;;19.27;9.50;;;;;;;;;;4974464;28;21661;-59
2024/03/07 04:50:44;;;;;;;21.38;8.38;;;;;;;;;;4974164;28;20066;-58
2024/03/07 04:53:32;;;;;;;23.85;10.10;;;;;;;;;;4973306;28;20843;-51
2024/03/07 04:56:25;;;;;;;27.13;10.68;;;;;;;;;;4970585;28;20058;-47
2024/03/07 04:59:13;;;;;;;20.30;9.27;;;;;;;;;;4975083;28;21017;-47
2024/03/07 05:02:08;;;;;;;23.75;8.48;;;;;;;;;;4970578;28;20054;-59
2024/03/07 05:04:57;;;;;;;25.63;9.27;;;;;;;;;;4976244;28;20392;-63
2024/03/07 05:07:52;;;;;;;23.55;9.55;;;;;;;;;;4973849;28;20412;-62
2024/03/07 05:10:39;;;;;;;20.67;9.88;;;;;;;;;;4971642;28;20062;-62
2024/03/07 05:13:33;;;;;;;21.08;9.35;;;;;;;;;;4970727;28;20737;-58
2024/03/07 05:16:20;;;;;;;21.15;8.77;;;;;;;;;;4973187;28;20050;-60
2024/03/07 05:19:21;;;;;;;27.70;8.73;;;;;;;;;;4995095;28;20085;-63
2024/03/07 05:22:13;;;;;;;18.92;8.50;;;;;;;;;;4994253;28;20120;-59
2024/03/07 05:25:05;;;;;;;19.02;9.30;;;;;;;;;;4991706;28;20062;-61
2024/03/07 05:27:50;;;;;;;25.15;10.05;;;;;;;;;;4990024;28;20050;-59
2024/03/07 05:30:43;;;;;;;27.95;10.63;;;;;;;;;;4990577;28;20058;-66
2024/03/07 05:33:30;;;;;;;24.10;10.35;;;;;;;;;;4989222;28;20050;-53
2024/03/07 05:36:24;;;;;;;27.73;9.20;;;;;;;;;;4993948;28;20050;-58
2024/03/07 05:39:18;;;;;;;25.73;9.98;;;;;;;;;;4992869;28;20053;-57
2024/03/07 05:42:13;;;;;;;29.67;10.65;;;;;;;;;;4994022;28;20088;-59
2024/03/07 05:44:59;;;;;;;19.13;9.57;;;;;;;;;;4992972;28;20054;-58
2024/03/07 05:47:53;;;;;;;20.10;9.20;;;;;;;;;;4990756;28;20171;-61
2024/03/07 05:50:40;;;;;;;28.60;9.68;;;;;;;;;;4991890;28;20049;-56
2024/03/07 05:53:35;;;;;;;21.63;8.27;;;;;;;;;;4995416;28;20077;-56
2024/03/07 05:56:22;;;;;;;21.23;8.45;;;;;;;;;;4992858;28;20073;-56
2024/03/07 05:59:15;;;;;;;15.60;7.43;;;;;;;;;;4994822;28;20072;-56
2024/03/07 06:02:09;;;;;;;21.10;9.30;;;;;;;;;;4995680;28;20041;-63
2024/03/07 06:05:03;;;;;;;25.10;9.25;;;;;;;;;;4990585;28;20273;-62
2024/03/07 06:07:50;;;;;;;21.00;9.05;;;;;;;;;;4997084;28;20136;-61
2024/03/07 06:10:44;;;;;;;21.98;8.10;;;;;;;;;;4999320;28;20054;-60
2024/03/07 06:13:32;;;;;;;22.03;7.33;;;;;;;;;;4998809;28;20042;-61
2024/03/07 06:16:25;;;;;;;21.17;9.00;;;;;;;;;;4993748;28;20074;-62
2024/03/07 06:19:19;;;;;;;22.42;8.80;;;;;;;;;;4995923;28;20054;-51
2024/03/07 06:22:12;;;;;;;18.33;7.57;;;;;;;;;;4995558;28;20225;-52
2024/03/07 06:25:06;;;;;;;18.05;8.65;;;;;;;;;;4993998;28;20050;-53
2024/03/07 06:27:56;;;;;;;22.65;8.68;;;;;;;;;;4992340;28;20165;-63
2024/03/07 06:30:45;;;;;;;19.75;9.30;;;;;;;;;;4991008;28;20064;-51
2024/03/07 06:33:38;;;;;;;20.85;9.20;;;;;;;;;;4995494;28;20108;-47
2024/03/07 06:36:25;;;;;;;19.50;8.55;;;;;;;;;;4993206;28;20054;-50
2024/03/07 06:39:21;;;;;;;18.38;8.60;;;;;;;;;;4994614;28;20058;-49
2024/03/07 06:42:06;;;;;;;23.58;8.85;;;;;;;;;;4996199;28;20053;-48
2024/03/07 06:45:01;;;;;;;22.88;8.88;;;;;;;;;;4993290;28;20992;-48
2024/03/07 06:47:47;;;;;;;21.08;8.38;;;;;;;;;;4996261;28;20116;-64
2024/03/07 06:50:48;;;;;;;15.90;7.72;;;;;;;;;;4999241;28;20090;-64
2024/03/07 06:53:35;;;;;;;17.83;7.88;;;;;;;;;;4999157;28;20373;-63
2024/03/07 06:56:30;;;;;;;14.40;7.22;;;;;;;;;;4999796;28;20053;-66
2024/03/07 06:59:18;;;;;;;18.15;7.82;;;;;;;;;;4997122;28;20046;-63
2024/03/07 07:02:10;;;;;;;18.67;7.60;;;;;;;;;;4999173;28;20397;-61
2024/03/07 07:04:57;;;;;;;15.45;7.50;;;;;;;;;;4998373;28;20425;-63
2024/03/07 07:07:51;;;;;;;20.23;8.38;;;;;;;;;;4994300;28;20054;-59
2024/03/07 07:10:40;;;;;;;16.88;7.97;;;;;;;;;;4996571;28;20045;-59
2024/03/07 07:13:33;;;;;;;23.90;8.52;;;;;;;;;;4996433;28;20521;-58
2024/03/07 07:16:27;;;;;;;22.80;7.85;;;;;;;;;;4997013;28;20429;-59
2024/03/07 07:19:21;;;;;;;27.75;9.07;;;;;;;;;;4995430;28;20069;-57
2024/03/07 07:22:15;;;;;;;19.17;9.48;;;;;;;;;;4993643;28;20050;-59
2024/03/07 07:25:04;;;;;;;26.88;9.43;;;;;;;;;;4994742;28;20061;-58
2024/03/07 07:27:56;;;;;;;25.00;10.43;;;;;;;;;;4992939;28;20072;-60
2024/03/07 07:30:43;;;;;;;24.80;11.13;;;;;;;;;;4997796;28;20058;-59
2024/03/07 07:33:37;;;;;;;22.05;10.52;;;;;;;;;;4997551;28;20069;-59
2024/03/07 07:36:32;;;;;;;25.58;10.63;;;;;;;;;;4997540;28;20046;-59
2024/03/07 07:39:25;;;;;;;22.67;10.02;;;;;;;;;;5000192;28;20054;-60
2024/03/07 07:42:12;;;;;;;23.10;10.05;;;;;;;;;;4998271;28;20089;-60
2024/03/07 07:45:10;;;;;;;28.60;11.00;;;;;;;;;;4996507;28;20046;-61
2024/03/07 07:47:55;;;;;;;25.02;10.13;;;;;;;;;;4992348;28;20057;-61
2024/03/07 07:50:51;;;;;;;26.55;10.50;;;;;;;;;;4996862;28;20057;-62
2024/03/07 07:53:37;;;;;;;20.35;9.38;;;;;;;;;;5001751;28;20064;-60
2024/03/07 07:56:31;;;;;;;24.13;9.73;;;;;;;;;;4994628;28;20120;-56
2024/03/07 07:59:17;;;;;;;25.67;9.90;;;;;;;;;;4997061;28;20478;-57
2024/03/07 08:02:11;;;;;;;23.65;9.48;;;;;;;;;;4993606;28;20140;-57
2024/03/07 08:04:58;;;;;;;25.58;9.25;;;;;;;;;;4996720;28;20053;-56
2024/03/07 08:07:53;;;;;;;24.42;9.95;;;;;;;;;;4995120;28;20695;-55
2024/03/07 08:10:41;;;;;;;16.80;7.93;;;;;;;;;;4991511;28;20054;-55
2024/03/07 08:13:35;;;;;;;23.38;10.18;;;;;;;;;;4994883;28;20137;-44
2024/03/07 08:16:24;;;;;;;19.75;9.75;;;;;;;;;;4994654;28;20050;-46
2024/03/07 08:19:24;;;;;;;21.23;9.32;;;;;;;;;;4997326;28;20083;-45
2024/03/07 08:22:11;;;;;;;22.85;9.57;;;;;;;;;;4996858;28;20574;-59
2024/03/07 08:25:08;;;;;;;20.50;9.43;;;;;;;;;;4995007;28;20054;-49
2024/03/07 08:27:58;;;;;;;17.73;8.68;;;;;;;;;;4996168;28;20128;-48
2024/03/07 08:30:46;;;;;;;19.25;9.52;;;;;;;;;;4984960;28;20472;-50
2024/03/07 08:33:39;;;;;;;19.77;9.60;;;;;;;;;;4996229;28;20073;-50
2024/03/07 08:36:29;;;;;;;22.17;9.65;;;;;;;;;;5000468;28;20046;-49
2024/03/07 08:39:29;;;;;;;23.88;9.70;;;;;;;;;;4999016;28;20828;-48
2024/03/07 08:42:17;;;;;;;19.60;10.27;;;;;;;;;;4996517;28;20137;-61
2024/03/07 08:45:10;;;;;;;23.70;10.40;;;;;;;;;;5000705;28;20050;-61
2024/03/07 08:47:57;;;;;;;26.08;12.07;;;;;;;;;;4997535;28;20054;-60
2024/03/07 08:50:51;;;;;;;31.95;12.98;;;;;;;;;;4998181;28;20460;-49
2024/03/07 08:53:38;;;;;;;33.10;13.95;;;;;;;;;;4996418;28;20058;-48
2024/03/07 08:56:32;;;;;;;33.50;15.05;;;;;;;;;;4994141;28;20050;-46
2024/03/07 08:59:19;;;;;;;26.35;13.07;;;;;;;;;;4995690;28;20050;-47
2024/03/07 09:02:13;;;;;;;26.88;12.35;;;;;;;;;;4994271;28;20056;-48
2024/03/07 09:05:01;;;;;;;28.08;12.93;;;;;;;;;;4994159;28;20065;-46
2024/03/07 09:07:56;;;;;;;33.88;14.35;;;;;;;;;;4994812;28;20049;-65
2024/03/07 09:10:44;;;;;;;24.08;11.93;;;;;;;;;;4997882;28;20061;-66
2024/03/07 09:13:37;;;;;;;23.33;12.23;;;;;;;;;;4996303;28;20042;-65
2024/03/07 09:16:24;;;;;;;23.80;11.88;;;;;;;;;;4995762;28;20053;-65
2024/03/07 09:19:25;;;;;;;21.52;10.68;;;;;;;;;;4996561;28;20120;-47
2024/03/07 09:22:19;;;;;;;27.08;10.30;;;;;;;;;;4998767;28;20049;-60
2024/03/07 09:25:06;;;;;;;19.20;9.95;;;;;;;;;;4992673;28;20054;-60
2024/03/07 09:28:00;;;;;;;22.15;9.07;;;;;;;;;;4998803;28;20052;-61
2024/03/07 09:30:48;;;;;;;20.33;9.07;;;;;;;;;;5000578;28;20046;-60
2024/03/07 09:33:41;;;;;;;20.52;9.02;;;;;;;;;;5002002;28;20469;-61
2024/03/07 09:36:29;;;;;;;17.10;9.13;;;;;;;;;;4998061;28;20553;-54
2024/03/07 09:39:22;;;;;;;17.75;9.98;;;;;;;;;;5001310;28;20049;-56
2024/03/07 09:42:09;;;;;;;16.23;8.70;;;;;;;;;;4997265;28;20152;-54
2024/03/07 09:45:04;;;;;;;20.42;7.95;;;;;;;;;;4997299;28;20600;-55
2024/03/07 09:47:53;;;;;;;14.10;8.25;;;;;;;;;;4999506;28;20544;-66
2024/03/07 09:50:48;;;;;;;17.45;8.63;;;;;;;;;;4995548;28;21173;-58
2024/03/07 09:53:37;;;;;;;29.05;11.15;;;;;;;;;;4996181;28;20057;-59
2024/03/07 09:56:32;;;;;;;18.73;8.57;;;;;;;;;;4996400;28;20486;-55
2024/03/07 09:59:23;;;;;;;18.67;7.88;;;;;;;;;;4997197;28;20069;-57
2024/03/07 10:02:18;;;;;;;17.95;7.32;;;;;;;;;;4998340;28;20069;-59
2024/03/07 10:05:05;;;;;;;17.98;7.90;;;;;;;;;;4996197;28;20050;-58
2024/03/07 10:08:01;;;;;;;19.35;8.63;;;;;;;;;;4996606;28;20057;-58
2024/03/07 10:10:56;;;;;;;17.45;7.95;;;;;;;;;;4998494;28;20055;-55
2024/03/07 10:13:48;;;;;;;20.42;9.98;;;;;;;;;;4997175;28;20489;-56
2024/03/07 10:16:38;;;;;;;25.15;12.07;;;;;;;;;;4997038;28;20081;-67
2024/03/07 10:19:31;;;;;;;31.17;15.00;;;;;;;;;;4994075;28;20650;-58
2024/03/07 10:22:24;;;;;;;42.13;18.05;;;;;;;;;;4990576;28;20054;-57
2024/03/07 10:25:11;;;;;;;35.28;15.95;;;;;;;;;;4996395;28;20050;-55
2024/03/07 10:28:20;;;;;;;22.70;11.30;;;;;;;;;;4996668;28;20050;-57
2024/03/07 10:31:28;;;;;;;34.45;13.48;;;;;;;;;;4997036;28;20046;-60
2024/03/07 10:34:34;;;;;;;24.02;8.80;;;;;;;;;;4990727;28;20056;-51
2024/03/07 10:37:22;;;;;;;16.30;7.35;;;;;;;;;;4999507;28;20077;-46
2024/03/07 10:40:15;;;;;;;12.98;6.43;;;;;;;;;;5001517;28;20101;-50
2024/03/07 10:43:09;;;;;;;15.35;7.28;;;;;;;;;;5002367;28;20050;-50
2024/03/07 10:46:00;;;;;;;13.57;6.32;;;;;;;;;;5000505;28;20050;-65
2024/03/07 10:48:50;;;;;;;9.77;6.07;;;;;;;;;;4995078;28;20124;-53
2024/03/07 10:51:47;;;;;;;15.25;5.97;;;;;;;;;;5000134;28;20601;-54
2024/03/07 10:54:46;;;;;;;13.50;5.72;;;;;;;;;;5000109;28;20058;-58
2024/03/07 10:57:43;;;;;;;10.60;6.72;;;;;;;;;;4997538;28;20218;-56
2024/03/07 11:00:45;;;;;;;15.50;5.80;;;;;;;;;;4996494;28;20049;-58
2024/03/07 11:03:26;;;;;;;11.85;6.32;;;;;;;;;;4998189;28;20064;-66
2024/03/07 11:06:14;;;;;;;12.15;6.25;;;;;;;;;;4998285;28;20502;-67
2024/03/07 11:09:10;;;;;;;15.35;5.72;;;;;;;;;;4998289;28;20046;-66
2024/03/07 11:11:55;;;;;;;12.35;5.75;;;;;;;;;;4996808;28;20586;-51
2024/03/07 11:14:51;;;;;;;15.98;7.18;;;;;;;;;;4999244;28;20050;-62
2024/03/07 11:17:44;;;;;;;11.80;6.95;;;;;;;;;;4995855;28;20054;-60
2024/03/07 11:20:46;;;;;;;11.15;6.75;;;;;;;;;;4998489;28;20065;-61
2024/03/07 11:23:38;;;;;;;11.93;6.00;;;;;;;;;;4997446;28;20058;-60
2024/03/07 11:26:27;;;;;;;18.50;7.30;;;;;;;;;;4996311;28;20403;-61
2024/03/07 11:29:33;;;;;;;10.27;5.90;;;;;;;;;;4997494;28;20069;-61
2024/03/07 11:32:29;;;;;;;12.55;5.75;;;;;;;;;;4995507;28;20050;-66
2024/03/07 11:35:35;;;;;;;14.35;6.72;;;;;;;;;;4999976;28;20144;-66
2024/03/07 11:38:23;;;;;;;14.93;5.95;;;;;;;;;;4998688;28;20053;-65
2024/03/07 11:41:13;;;;;;;12.60;6.10;;;;;;;;;;4998060;28;20057;-61
2024/03/07 11:44:05;;;;;;;13.57;6.28;;;;;;;;;;4998217;28;20057;-67
2024/03/07 11:46:54;;;;;;;11.45;6.13;;;;;;;;;;4997296;28;20117;-66
2024/03/07 11:49:41;;;;;;;16.23;5.93;;;;;;;;;;4999483;28;20105;-67
2024/03/07 11:52:37;;;;;;;13.25;5.82;;;;;;;;;;4998115;28;20058;-67
2024/03/07 11:55:29;;;;;;;10.60;6.20;;;;;;;;;;4995379;28;20061;-67
2024/03/07 11:58:23;;;;;;;13.52;5.78;;;;;;;;;;4999105;28;20058;-67
2024/03/07 12:01:13;;;;;;;9.13;5.60;;;;;;;;;;4999207;28;20066;-62
2024/03/07 12:04:06;;;;;;;13.27;5.95;;;;;;;;;;4996524;28;20054;-62
2024/03/07 12:06:53;;;;;;;;;;;;;;;;;;4999241;28;20513;-63
2024/03/07 12:09:50;;;;;;;14.57;6.13;;;;;;;;;;4997513;28;19926;-57
2024/03/07 12:12:34;;;;;;;13.27;5.88;;;;;;;;;;5001052;28;20069;-62
2024/03/07 12:15:27;;;;;;;13.98;5.78;;;;;;;;;;4995714;28;20100;-62
2024/03/07 12:18:17;;;;;;;16.45;5.75;;;;;;;;;;4996678;28;20065;-63
2024/03/07 12:21:09;;;;;;;11.25;5.53;;;;;;;;;;4997660;28;20076;-62
2024/03/07 12:23:56;;;;;;;13.43;6.18;;;;;;;;;;4998379;28;20046;-63
2024/03/07 12:26:50;;;;;;;12.55;5.80;;;;;;;;;;4995963;28;20057;-62
2024/03/07 12:29:38;;;;;;;13.13;5.43;;;;;;;;;;4995040;28;20054;-58
2024/03/07 12:32:31;;;;;;;12.45;5.80;;;;;;;;;;4996716;28;20050;-58
2024/03/07 12:35:18;;;;;;;11.70;5.25;;;;;;;;;;4999591;28;20054;-58
2024/03/07 12:38:15;;;;;;;15.57;5.88;;;;;;;;;;4996438;28;20083;-60
2024/03/07 12:41:05;;;;;;;10.43;5.20;;;;;;;;;;4996954;28;20122;-63
2024/03/07 12:43:58;;;;;;;11.18;4.97;;;;;;;;;;4995394;28;20425;-62
2024/03/07 12:46:48;;;;;;;9.70;5.13;;;;;;;;;;4995168;28;20050;-63
2024/03/07 12:49:45;;;;;;;17.90;5.10;;;;;;;;;;4995388;28;20054;-63
2024/03/07 12:52:32;;;;;;;12.48;5.22;;;;;;;;;;4995631;28;20061;-63
2024/03/07 12:55:26;;;;;;;7.70;4.22;;;;;;;;;;4995867;28;20086;-63
2024/03/07 12:58:12;;;;;;;9.45;5.13;;;;;;;;;;4999771;28;20124;-62
2024/03/07 13:01:11;;;;;;;13.20;5.03;;;;;;;;;;4997560;28;20050;-63
2024/03/07 13:03:57;;;;;;;12.90;4.78;;;;;;;;;;4990418;28;20061;-63
2024/03/07 13:06:51;;;;;;;9.25;4.85;;;;;;;;;;4998695;28;20524;-61
2024/03/07 13:09:40;;;;;;;8.27;4.07;;;;;;;;;;4994848;28;20054;-63
2024/03/07 13:12:33;;;;;;;9.70;4.40;;;;;;;;;;4997419;28;20112;-63
2024/03/07 13:15:22;;;;;;;8.48;4.47;;;;;;;;;;5000241;28;20054;-63
2024/03/07 13:18:20;;;;;;;9.43;4.15;;;;;;;;;;4993110;28;20065;-63
2024/03/07 13:21:10;;;;;;;11.27;4.20;;;;;;;;;;4998164;28;20050;-62
2024/03/07 13:24:02;;;;;;;8.50;4.07;;;;;;;;;;4994488;28;20506;-63
2024/03/07 13:26:50;;;;;;;7.38;4.30;;;;;;;;;;4995507;28;20064;-48
2024/03/07 13:29:51;;;;;;;8.52;4.32;;;;;;;;;;4997613;28;20619;-50
2024/03/07 13:32:45;;;;;;;11.15;4.57;;;;;;;;;;4995569;28;20057;-49
2024/03/07 13:35:39;;;;;;;8.60;4.40;;;;;;;;;;4991312;28;20291;-54
2024/03/07 13:38:26;;;;;;;10.75;4.28;;;;;;;;;;4997571;28;20137;-59
2024/03/07 13:41:20;;;;;;;10.45;4.50;;;;;;;;;;4994949;28;20063;-60
2024/03/07 13:44:08;;;;;;;8.63;3.90;;;;;;;;;;4992554;28;20077;-61
2024/03/07 13:47:01;;;;;;;6.32;3.90;;;;;;;;;;4996325;28;20086;-61
2024/03/07 13:49:49;;;;;;;10.30;4.22;;;;;;;;;;4993341;28;20072;-61
2024/03/07 13:53:10;;;;;;;10.43;4.20;;;;;;;;;;4996626;28;20113;-61
2024/03/07 13:56:12;;;;;;;7.97;4.40;;;;;;;;;;4994105;28;20049;-62
2024/03/07 13:59:04;;;;;;;10.00;3.83;;;;;;;;;;4996140;28;20053;-58
2024/03/07 14:02:10;;;;;;;7.10;4.40;;;;;;;;;;4997195;28;20057;-61
2024/03/07 14:05:25;;;;;;;9.15;3.97;;;;;;;;;;4997469;28;20149;-66
2024/03/07 14:08:30;;;;;;;13.90;4.28;;;;;;;;;;5000264;28;20054;-52
2024/03/07 14:11:41;;;;;;;9.90;3.83;;;;;;;;;;4998224;28;20133;-49
2024/03/07 14:14:43;;;;;;;12.18;4.05;;;;;;;;;;4998187;28;20068;-50
2024/03/07 14:17:41;;;;;;;7.53;3.60;;;;;;;;;;4998107;28;20154;-50
2024/03/07 14:20:47;;;;;;;6.55;3.67;;;;;;;;;;4976695;28;20506;-54
2024/03/07 14:23:34;;;;;;;8.55;3.67;;;;;;;;;;4979624;28;20117;-53
2024/03/07 14:26:41;;;;;;;9.40;3.85;;;;;;;;;;4978581;28;20431;-50
2024/03/07 14:29:43;;;;;;;8.88;4.10;;;;;;;;;;4980127;28;20078;-53
2024/03/07 14:32:39;;;;;;;8.45;3.85;;;;;;;;;;4975674;28;20069;-63
2024/03/07 14:35:35;;;;;;;6.78;4.38;;;;;;;;;;4980061;28;20088;-49
2024/03/07 14:38:38;;;;;;;12.25;3.88;;;;;;;;;;4979291;28;20054;-50
2024/03/07 14:41:46;;;;;;;10.40;3.63;;;;;;;;;;4979399;28;20055;-52
2024/03/07 14:44:39;;;;;;;7.10;3.75;;;;;;;;;;4980694;28;20056;-51
2024/03/07 14:47:30;;;;;;;9.20;3.90;;;;;;;;;;4979927;28;20046;-47
2024/03/07 14:50:27;;;;;;;10.05;3.83;;;;;;;;;;4979034;28;20059;-61
2024/03/07 14:53:19;;;;;;;6.80;3.50;;;;;;;;;;4978679;28;20502;-62
2024/03/07 14:56:10;;;;;;;7.88;3.15;;;;;;;;;;4980450;28;20050;-59
2024/03/07 14:58:56;;;;;;;8.90;4.20;;;;;;;;;;4976412;28;20054;-61
2024/03/07 15:01:50;;;;;;;6.93;3.40;;;;;;;;;;4981281;28;20232;-61
2024/03/07 15:04:39;;;;;;;6.40;3.92;;;;;;;;;;4980689;28;20065;-65
2024/03/07 15:07:31;;;;;;;8.88;3.72;;;;;;;;;;4980474;28;20105;-66
2024/03/07 15:10:33;;;;;;;8.52;3.63;;;;;;;;;;4979616;28;20042;-66
2024/03/07 15:13:20;;;;;;;5.88;3.55;;;;;;;;;;4976118;28;20053;-65
2024/03/07 15:16:15;;;;;;;9.25;3.45;;;;;;;;;;4979729;28;20058;-64
2024/03/07 15:19:10;;;;;;;10.13;3.83;;;;;;;;;;4991005;28;20425;-50
2024/03/07 15:22:11;;;;;;;6.18;3.63;;;;;;;;;;4999454;28;20083;-54
2024/03/07 15:25:01;;;;;;;10.95;4.07;;;;;;;;;;5000871;28;20081;-51
2024/03/07 15:27:56;;;;;;;11.70;3.90;;;;;;;;;;4998383;28;20046;-48
2024/03/07 15:30:42;;;;;;;9.73;4.03;;;;;;;;;;4997177;28;20046;-52
2024/03/07 15:33:34;;;;;;;6.60;3.80;;;;;;;;;;4997438;28;20109;-63
2024/03/07 15:36:22;;;;;;;8.63;3.63;;;;;;;;;;4997612;28;20706;-63
2024/03/07 15:39:19;;;;;;;9.77;4.40;;;;;;;;;;4997898;28;20057;-62
2024/03/07 15:42:08;;;;;;;9.23;3.97;;;;;;;;;;4994030;28;20074;-63
2024/03/07 15:45:00;;;;;;;11.05;4.85;;;;;;;;;;4995718;28;20133;-62
2024/03/07 15:47:51;;;;;;;8.35;3.97;;;;;;;;;;4997558;28;20049;-66
2024/03/07 15:50:48;;;;;;;10.82;4.82;;;;;;;;;;4996927;28;20078;-66
2024/03/07 15:53:36;;;;;;;10.13;4.50;;;;;;;;;;4996563;28;20458;-66
2024/03/07 15:56:29;;;;;;;10.13;4.13;;;;;;;;;;4998121;28;20089;-55
2024/03/07 15:59:16;;;;;;;10.43;5.10;;;;;;;;;;4997126;28;20054;-61
2024/03/07 16:02:14;;;;;;;9.57;4.50;;;;;;;;;;4998741;28;20062;-66
2024/03/07 16:04:58;;;;;;;10.07;4.30;;;;;;;;;;4996100;28;20493;-65
2024/03/07 16:07:52;;;;;;;14.73;5.00;;;;;;;;;;4999421;28;20058;-65
2024/03/07 16:10:40;;;;;;;12.35;4.38;;;;;;;;;;4998341;28;20136;-66
2024/03/07 16:13:35;;;;;;;8.93;4.40;;;;;;;;;;4996394;28;20141;-65
2024/03/07 16:16:20;;;;;;;10.35;4.78;;;;;;;;;;4999199;28;20239;-61
2024/03/07 16:19:27;;;;;;;13.77;5.50;;;;;;;;;;5003247;28;20516;-61
2024/03/07 16:22:21;;;;;;;12.50;4.90;;;;;;;;;;5003679;28;20100;-61
2024/03/07 16:25:16;;;;;;;17.55;5.38;;;;;;;;;;4999061;28;20053;-66
2024/03/07 16:28:06;;;;;;;11.30;5.60;;;;;;;;;;4995563;28;20064;-66
2024/03/07 16:31:01;;;;;;;10.40;5.28;;;;;;;;;;5000900;28;20144;-54
2024/03/07 16:33:46;;;;;;;12.48;4.95;;;;;;;;;;4995844;28;20460;-52
2024/03/07 16:36:39;;;;;;;13.35;5.60;;;;;;;;;;4993565;28;20058;-48
2024/03/07 16:39:27;;;;;;;16.13;6.03;;;;;;;;;;4991305;28;20081;-52
2024/03/07 16:42:20;;;;;;;15.25;5.53;;;;;;;;;;4993946;28;20045;-53
2024/03/07 18:37:15;;;;;;;15.73;6.22;;;;;;;;;;5738011;23;8486814;-91
2024/03/07 18:39:51;;;;;;;17.73;6.40;;;;;;;;;;6089798;23;20490;-91
2024/03/07 18:42:19;;;;;;;15.85;5.90;;;;;;;;;;6087842;23;20323;-91
2024/03/07 18:44:49;;;;;;;;;;;;;;;;;;6089366;23;20368;-91
2024/03/07 18:47:23;;;;;;;18.65;6.75;;;;;;;;;;6089622;23;19921;-93